createdAt,value
2023-05-06T00:04:16.441Z,69.16
2023-05-06T00:09:21.356Z,69.01
2023-05-06T00:14:25.299Z,69.09
2023-05-06T00:19:29.240Z,68.88
2023-05-06T00:24:34.150Z,69.06
2023-05-06T00:29:37.881Z,68.93
2023-05-06T00:34:41.683Z,69.36
2023-05-06T00:39:46.754Z,69.27
2023-05-06T00:44:50.820Z,69.42
2023-05-06T00:49:54.365Z,70.12
2023-05-06T00:54:59.543Z,70.48
2023-05-06T01:00:03.156Z,71.31
2023-05-06T01:05:09.601Z,72.47
2023-05-06T01:10:21.751Z,73.25
2023-05-06T01:15:34.320Z,73.87
2023-05-06T01:20:39.533Z,73.94
2023-05-06T01:25:44.569Z,74.08
2023-05-06T01:30:57.009Z,74.25
2023-05-06T01:36:11.260Z,75.00
2023-05-06T01:41:17.975Z,75.59
2023-05-06T01:46:23.868Z,76.34
2023-05-06T01:51:27.820Z,76.52
2023-05-06T01:56:33.010Z,76.84
2023-05-06T02:01:36.761Z,76.78
2023-05-06T02:06:40.299Z,77.14
2023-05-06T02:11:45.204Z,77.38
2023-05-06T02:16:48.875Z,78.43
2023-05-06T02:21:52.393Z,77.88
2023-05-06T02:26:57.673Z,77.86
2023-05-06T02:32:01.138Z,77.22
2023-05-06T02:37:04.974Z,77.57
2023-05-06T02:42:09.898Z,77.42
2023-05-06T02:47:13.684Z,77.85
2023-05-06T02:52:17.098Z,77.93
2023-05-06T02:57:22.198Z,77.68
2023-05-06T03:02:25.621Z,76.90
2023-05-06T03:07:29.064Z,77.57
2023-05-06T03:12:34.357Z,77.00
2023-05-06T03:17:38.996Z,77.44
2023-05-06T03:22:43.839Z,78.79
2023-05-06T03:27:49.137Z,79.61
2023-05-06T03:32:57.461Z,78.66
2023-05-06T03:38:07.036Z,78.96
2023-05-06T03:43:22.160Z,78.75
2023-05-06T03:48:30.130Z,80.31
2023-05-06T03:53:34.443Z,79.94
2023-05-06T03:58:41.439Z,80.23
2023-05-06T04:03:47.993Z,80.32
2023-05-06T04:08:51.650Z,80.18
2023-05-06T04:13:57.903Z,80.50
2023-05-06T04:19:01.964Z,80.53
2023-05-06T04:24:06.537Z,80.05
2023-05-06T04:29:15.554Z,79.13
2023-05-06T04:34:31.814Z,78.85
2023-05-06T04:39:39.443Z,78.20
2023-05-06T04:44:45.640Z,78.12
2023-05-06T04:49:49.686Z,77.68
2023-05-06T04:54:53.918Z,76.79
2023-05-06T04:59:58.837Z,76.02
2023-05-06T05:05:03.343Z,75.33
2023-05-06T05:10:10.510Z,75.38
2023-05-06T05:15:17.230Z,74.56
2023-05-06T05:20:21.192Z,73.88
2023-05-06T05:25:24.926Z,74.14
2023-05-06T05:30:30.054Z,74.36
2023-05-06T05:35:34.110Z,73.58
2023-05-06T05:40:37.979Z,73.33
2023-05-06T05:45:43.862Z,72.63
2023-05-06T05:50:48.450Z,72.61
2023-05-06T05:55:54.157Z,71.95
2023-05-06T06:00:59.474Z,71.97
2023-05-06T06:06:03.894Z,71.70
2023-05-06T06:11:08.766Z,71.19
2023-05-06T06:16:18.034Z,71.48
2023-05-06T06:21:21.903Z,71.27
2023-05-06T06:26:25.853Z,70.02
2023-05-06T06:31:31.232Z,69.09
2023-05-06T06:36:34.942Z,68.59
2023-05-06T06:41:38.330Z,67.54
2023-05-06T06:46:43.282Z,66.73
2023-05-06T06:51:47.088Z,66.75
2023-05-06T06:56:51.013Z,66.04
2023-05-06T07:01:56.132Z,66.80
2023-05-06T07:06:59.975Z,66.21
2023-05-06T07:12:03.529Z,65.00
2023-05-06T07:17:08.408Z,65.17
2023-05-06T07:22:12.208Z,64.39
2023-05-06T07:27:15.772Z,64.13
2023-05-06T07:32:21.064Z,62.78
2023-05-06T07:37:24.755Z,61.49
2023-05-06T07:42:28.219Z,62.54
2023-05-06T07:47:33.801Z,62.21
2023-05-06T07:52:37.406Z,60.36
2023-05-06T07:57:41.117Z,59.97
2023-05-06T08:02:47.472Z,59.28
2023-05-06T08:07:51.733Z,59.65
2023-05-06T08:12:55.245Z,59.90
2023-05-06T08:18:10.212Z,59.81
2023-05-06T08:23:22.238Z,58.93
2023-05-06T08:28:26.004Z,59.49
2023-05-06T08:33:31.914Z,57.55
2023-05-06T08:38:35.679Z,56.90
2023-05-06T08:43:45.930Z,56.82
2023-05-06T08:48:52.136Z,56.49
2023-05-06T08:54:03.767Z,55.61
2023-05-06T08:59:09.730Z,53.86
2023-05-06T09:04:19.741Z,55.29
2023-05-06T09:09:26.908Z,56.19
2023-05-06T09:14:44.916Z,55.72
2023-05-06T09:19:54.424Z,56.07
2023-05-06T09:25:00.562Z,53.17
2023-05-06T09:30:09.896Z,52.32
2023-05-06T09:35:18.870Z,51.79
2023-05-06T09:40:36.238Z,53.65
2023-05-06T09:45:45.097Z,50.38
2023-05-06T09:50:52.903Z,47.55
2023-05-06T09:56:00.982Z,47.68
2023-05-06T10:01:15.161Z,49.83
2023-05-06T10:06:26.561Z,49.43
2023-05-06T10:11:39.159Z,49.60
2023-05-06T10:16:47.345Z,51.45
2023-05-06T10:22:04.472Z,48.13
2023-05-06T10:27:17.145Z,48.98
2023-05-06T10:32:32.909Z,48.33
2023-05-06T10:37:42.833Z,49.18
2023-05-06T10:42:47.510Z,48.02
2023-05-06T10:48:13.341Z,49.99
2023-05-06T10:53:59.786Z,49.53
2023-05-06T10:59:15.428Z,48.62
2023-05-06T11:04:38.298Z,48.73
2023-05-06T11:16:12.806Z,49.88
2023-05-06T11:21:51.131Z,50.63
2023-05-06T11:27:27.916Z,50.94
2023-05-06T11:44:58.956Z,49.77
2023-05-06T11:50:08.955Z,49.94
2023-05-06T11:55:14.791Z,50.41
2023-05-06T12:00:33.894Z,50.47
2023-05-06T12:05:42.996Z,49.81
2023-05-06T12:11:07.026Z,51.46
2023-05-06T12:16:13.372Z,52.48
2023-05-06T12:21:33.130Z,53.48
2023-05-06T12:26:52.132Z,53.40
2023-05-06T12:32:16.379Z,53.88
2023-05-06T12:37:31.594Z,53.59
2023-05-06T12:42:36.676Z,53.94
2023-05-06T12:47:54.490Z,53.74
2023-05-06T12:53:07.528Z,54.02
2023-05-06T12:58:24.120Z,53.07
2023-05-06T13:03:34.529Z,52.35
2023-05-06T13:08:55.525Z,51.40
2023-05-06T13:14:00.482Z,52.40
2023-05-06T13:19:30.783Z,53.32
2023-05-06T13:24:39.249Z,53.64
2023-05-06T13:29:52.926Z,52.58
2023-05-06T13:34:59.284Z,53.29
2023-05-06T13:40:08.097Z,54.22
2023-05-06T13:45:15.350Z,53.84
2023-05-06T13:50:24.136Z,53.29
2023-05-06T13:55:41.326Z,55.16
2023-05-06T14:00:48.972Z,53.53
2023-05-06T14:05:58.113Z,54.88
2023-05-06T14:11:05.045Z,54.65
2023-05-06T14:16:13.979Z,54.92
2023-05-06T14:21:23.268Z,55.07
2023-05-06T14:26:36.020Z,54.97
2023-05-06T14:31:54.298Z,56.14
2023-05-06T14:37:12.026Z,55.86
2023-05-06T14:42:16.027Z,56.33
2023-05-06T14:47:21.112Z,56.73
2023-05-06T14:52:35.431Z,57.96
2023-05-06T14:57:43.376Z,57.47
2023-05-06T15:02:52.671Z,57.95
2023-05-06T15:08:01.492Z,57.80
2023-05-06T15:13:09.338Z,58.63
2023-05-06T15:18:27.666Z,59.74
2023-05-06T15:23:33.976Z,60.39
2023-05-06T15:28:45.603Z,60.11
2023-05-06T15:33:54.136Z,60.43
2023-05-06T15:39:04.045Z,60.78
2023-05-06T15:44:11.371Z,60.58
2023-05-06T15:49:47.243Z,60.97
2023-05-06T15:54:59.461Z,61.27
2023-05-06T16:00:10.547Z,60.65
2023-05-06T16:05:15.356Z,60.39
2023-05-06T16:10:33.354Z,60.56
2023-05-06T16:15:44.970Z,60.68
2023-05-06T16:20:54.932Z,61.02
2023-05-06T16:26:05.458Z,60.77
2023-05-06T16:31:30.952Z,61.10
2023-05-06T16:36:43.856Z,61.52
2023-05-06T16:41:57.796Z,61.42
2023-05-06T16:47:05.615Z,61.48
2023-05-06T16:52:15.586Z,61.70
2023-05-06T16:57:23.929Z,61.68
2023-05-06T17:07:55.693Z,62.49
2023-05-06T17:13:08.360Z,62.70
2023-05-06T17:18:26.262Z,62.85
2023-05-06T17:23:40.873Z,62.88
2023-05-06T17:28:50.931Z,62.31
2023-05-06T17:34:02.464Z,62.59
2023-05-06T17:39:08.653Z,62.85
2023-05-06T17:44:17.059Z,63.13
2023-05-06T17:49:21.144Z,63.10
2023-05-06T17:54:27.828Z,63.22
2023-05-06T17:59:44.771Z,62.08
2023-05-06T18:04:50.299Z,62.08
2023-05-06T18:10:05.856Z,60.67
2023-05-06T18:15:18.348Z,60.06
2023-05-06T18:20:22.578Z,59.22
2023-05-06T18:25:28.408Z,59.55
2023-05-06T18:30:35.398Z,59.15
2023-05-06T18:35:43.156Z,59.23
2023-05-06T18:40:51.737Z,59.28
2023-05-06T18:46:07.366Z,59.26
2023-05-06T18:51:22.288Z,59.95
2023-05-06T18:56:31.797Z,60.23
2023-05-06T19:01:37.515Z,61.19
2023-05-06T19:06:47.405Z,61.10
2023-05-06T19:12:01.452Z,61.12
2023-05-06T19:17:07.349Z,61.86
2023-05-06T19:22:11.321Z,62.14
2023-05-06T19:27:17.407Z,62.04
2023-05-06T19:32:55.540Z,62.33
2023-05-06T19:38:15.911Z,62.19
2023-05-06T19:43:28.819Z,62.04
2023-05-06T19:48:41.739Z,61.95
2023-05-06T19:53:47.112Z,62.61
2023-05-06T19:58:51.681Z,63.09
2023-05-06T20:03:59.980Z,62.85
2023-05-06T20:09:12.643Z,63.20
2023-05-06T20:14:31.553Z,63.46
2023-05-06T20:19:38.695Z,63.60
2023-05-06T20:24:45.207Z,64.25
2023-05-06T20:29:52.985Z,63.77
2023-05-06T20:35:00.763Z,64.19
2023-05-06T20:40:06.903Z,63.52
2023-05-06T20:45:15.125Z,63.31
2023-05-06T20:50:21.377Z,63.96
2023-05-06T20:55:31.198Z,63.82
2023-05-06T21:00:38.468Z,64.16
2023-05-06T21:05:44.675Z,64.44
2023-05-06T21:10:48.951Z,64.65
2023-05-06T21:16:03.072Z,64.74
2023-05-06T21:21:09.989Z,64.52
2023-05-06T21:26:13.976Z,65.11
2023-05-06T21:31:22.881Z,65.44
2023-05-06T21:36:40.912Z,66.46
2023-05-06T21:41:47.462Z,65.47
2023-05-06T21:46:53.739Z,65.05
2023-05-06T21:52:06.788Z,65.56
2023-05-06T21:57:15.152Z,65.91
2023-05-06T22:02:28.368Z,66.13
2023-05-06T22:07:34.480Z,66.70
2023-05-06T22:12:41.633Z,66.88
2023-05-06T22:17:55.637Z,67.27
2023-05-06T22:23:09.704Z,67.06
2023-05-06T22:28:23.878Z,67.58
2023-05-06T22:33:32.588Z,67.65
2023-05-06T22:38:45.692Z,67.75
2023-05-06T22:43:58.282Z,67.21
2023-05-06T22:49:03.428Z,67.26
2023-05-06T22:54:28.878Z,68.19
2023-05-06T22:59:47.628Z,67.68
2023-05-06T23:04:54.614Z,67.69
2023-05-06T23:10:03.646Z,67.32
2023-05-06T23:15:12.574Z,67.78
2023-05-06T23:20:21.430Z,67.81
2023-05-06T23:25:37.841Z,67.95
2023-05-06T23:30:51.620Z,68.11
2023-05-06T23:36:00.046Z,67.70
2023-05-06T23:41:14.572Z,67.14
2023-05-06T23:46:30.328Z,67.68
2023-05-06T23:51:34.506Z,68.06
2023-05-06T23:56:42.250Z,68.13
